Oeiras do Para, Brazil
Current Conditions -  °F | °C
As of 6:00 PM on Thursday 27 Nov 2014 (Local Time) from SBBE Reporting Station
Few Clouds Few Clouds  
Wind Chill: 86°   Ceiling: Unl
Heat Index: 88°   Visibility: 6mi
Dew Point: 66°   Wind: 14mph
Humidity: 51%   Direction: 60°ENE
Pressure: 29.83"   Gusts: NA
Location:  2°S, 49.85°W
Report Text: SBBE 272100Z 06012KT 9999 FEW040 30/19 Q1010
Loading
Personal Weather Stations






























Interactive Weather Map New forecast layout! Learn more

10-Day Weather Forecast

Advertisements
Track Severe Weather on mobile